Time;durP1;ratioP1;P1;durP2;ratioP2;P2;SDS_P1;SDS_P2;PMS_P1;PMS_P2;Temp;Humidity;BMP_temperature;BMP_pressure;BME280_temperature;BME280_humidity;BME280_pressure;Samples;Min_cycle;Max_cycle;Signal;HPM_P1;HPM_P2
2022/05/21 00:00:58;;;;;;;;;;;14.00;99.90;;;;;;5094032;28;19940;-74
2022/05/21 00:03:25;;;;;;;;;;;14.00;99.90;;;;;;5093970;28;19916;-74
2022/05/21 00:05:52;;;;;;;;;;;14.10;99.90;;;;;;5093794;28;19912;-73
2022/05/21 00:08:18;;;;;;;;;;;14.00;99.90;;;;;;5093887;28;19955;-74
2022/05/21 00:10:45;;;;;;;;;;;14.00;99.90;;;;;;5093676;28;20357;-74
2022/05/21 00:13:12;;;;;;;;;;;14.10;99.90;;;;;;5093813;28;19908;-74
2022/05/21 00:15:38;;;;;;;;;;;14.10;99.90;;;;;;5093561;28;20032;-74
2022/05/21 00:18:05;;;;;;;;;;;14.20;99.90;;;;;;5093609;28;20448;-74
2022/05/21 00:20:47;;;;;;;;;;;14.20;99.90;;;;;;5092450;28;19973;-73
2022/05/21 00:23:33;;;;;;;;;;;14.30;99.90;;;;;;5086499;28;19974;-74
2022/05/21 00:26:01;;;;;;;;;;;14.30;99.90;;;;;;5076701;28;19940;-74
2022/05/21 00:28:27;;;;;;;;;;;14.30;99.90;;;;;;5072106;28;19915;-74
2022/05/21 00:30:54;;;;;;;;;;;14.30;99.90;;;;;;5072625;28;19962;-74
2022/05/21 00:33:21;;;;;;;;;;;14.40;99.90;;;;;;5072668;28;19995;-74
2022/05/21 00:35:48;;;;;;;;;;;14.40;99.90;;;;;;5072418;28;20003;-74
2022/05/21 00:38:15;;;;;;;;;;;14.40;99.90;;;;;;5072559;28;19909;-74
2022/05/21 00:40:42;;;;;;;;;;;14.40;99.90;;;;;;5072590;28;19909;-74
2022/05/21 00:43:28;;;;;;;;;;;14.40;99.90;;;;;;5072394;28;19908;-74
2022/05/21 00:45:55;;;;;;;;;;;14.40;99.90;;;;;;5072248;28;20014;-74
2022/05/21 00:48:21;;;;;;;;;;;14.40;99.90;;;;;;5072264;28;19944;-74
2022/05/21 00:50:49;;;;;;;;;;;14.50;99.90;;;;;;4945049;28;3614953;-74
2022/05/21 00:53:16;;;;;;;;;;;14.70;99.90;;;;;;5073124;28;19912;-74
2022/05/21 00:55:42;;;;;;;;;;;14.80;99.90;;;;;;5072592;28;19913;-74
2022/05/21 01:00:56;;;;;;;;;;;14.80;99.90;;;;;;5073288;28;19916;-74
2022/05/21 01:03:24;;;;;;;;;;;14.80;99.90;;;;;;5072886;28;19919;-74
2022/05/21 01:05:50;;;;;;;;;;;14.90;99.90;;;;;;5072629;28;19913;-74
2022/05/21 01:08:17;;;;;;;;;;;14.90;99.90;;;;;;5072961;28;20378;-74
2022/05/21 01:10:49;;;;;;;;;;;14.90;99.90;;;;;;5072456;28;20274;-74
2022/05/21 01:13:17;;;;;;;;;;;14.80;99.90;;;;;;5072827;28;19908;-74
2022/05/21 01:15:45;;;;;;;;;;;14.80;99.90;;;;;;5072427;28;19947;-74
2022/05/21 01:18:12;;;;;;;;;;;14.80;99.90;;;;;;5072719;28;19997;-74
2022/05/21 01:20:41;;;;;;;;;;;14.80;99.90;;;;;;5072856;28;19909;-74
2022/05/21 01:23:08;;;;;;;;;;;14.90;99.90;;;;;;5072740;28;20256;-75
2022/05/21 01:25:37;;;;;;;;;;;14.90;99.90;;;;;;5072080;28;19909;-75
2022/05/21 01:28:06;;;;;;;;;;;14.90;99.90;;;;;;5072530;28;19908;-75
2022/05/21 01:30:40;;;;;;;;;;;14.90;99.90;;;;;;5072544;28;19921;-74
2022/05/21 01:33:08;;;;;;;;;;;15.00;99.90;;;;;;5072660;28;19908;-74
2022/05/21 01:35:35;;;;;;;;;;;15.10;99.90;;;;;;5072275;28;19940;-75
2022/05/21 01:38:02;;;;;;;;;;;15.10;99.90;;;;;;5072343;28;20267;-74
2022/05/21 01:40:29;;;;;;;;;;;15.10;99.90;;;;;;5071628;28;20003;-74
2022/05/21 01:45:41;;;;;;;;;;;15.10;99.90;;;;;;5072448;28;19970;-75
2022/05/21 01:48:08;;;;;;;;;;;15.00;99.90;;;;;;5072340;28;20027;-74
2022/05/21 01:50:36;;;;;;;;;;;14.90;99.90;;;;;;5072065;28;19931;-75
2022/05/21 01:53:03;;;;;;;;;;;14.90;99.90;;;;;;5072344;28;19913;-75
2022/05/21 01:55:29;;;;;;;;;;;15.10;99.90;;;;;;5072376;28;19909;-75
2022/05/21 01:57:56;;;;;;;;;;;15.10;99.90;;;;;;5072313;28;19908;-74
2022/05/21 02:00:23;;;;;;;;;;;15.10;99.90;;;;;;5072132;28;19912;-75
2022/05/21 02:02:49;;;;;;;;;;;15.00;99.90;;;;;;5072184;28;19908;-74
2022/05/21 02:05:17;;;;;;;;;;;15.00;99.90;;;;;;5072130;28;19908;-75
2022/05/21 02:07:43;;;;;;;;;;;15.10;99.90;;;;;;5071856;28;19956;-75
2022/05/21 02:10:10;;;;;;;;;;;15.20;99.90;;;;;;5071865;28;20477;-75
2022/05/21 02:12:36;;;;;;;;;;;15.20;99.90;;;;;;5072092;28;20386;-75
2022/05/21 02:15:03;;;;;;;;;;;15.20;99.90;;;;;;5072255;28;19999;-75
2022/05/21 02:17:30;;;;;;;;;;;15.10;99.90;;;;;;5071948;28;19908;-75
2022/05/21 02:19:57;;;;;;;;;;;15.20;99.90;;;;;;5072177;28;19924;-75
2022/05/21 02:22:23;;;;;;;;;;;15.40;99.90;;;;;;5071971;28;19912;-75
2022/05/21 02:24:50;;;;;;;;;;;15.40;99.90;;;;;;5071813;28;20350;-75
2022/05/21 02:27:17;;;;;;;;;;;15.30;99.90;;;;;;5072189;28;20003;-75
2022/05/21 02:29:44;;;;;;;;;;;15.30;99.90;;;;;;5071752;28;20377;-75
2022/05/21 02:32:12;;;;;;;;;;;15.30;99.90;;;;;;5071857;28;19995;-75
2022/05/21 02:34:40;;;;;;;;;;;15.30;99.90;;;;;;5071845;28;19916;-75
2022/05/21 02:39:51;;;;;;;;;;;15.40;99.90;;;;;;5072007;28;19920;-76
2022/05/21 02:45:03;;;;;;;;;;;15.70;99.90;;;;;;5072353;28;19916;-76
2022/05/21 02:47:30;;;;;;;;;;;15.80;99.90;;;;;;5071631;28;19909;-75
2022/05/21 02:49:57;;;;;;;;;;;15.90;99.90;;;;;;5071715;28;20326;-76
2022/05/21 02:52:24;;;;;;;;;;;16.00;99.90;;;;;;5075415;28;19908;-76
2022/05/21 02:54:51;;;;;;;;;;;16.10;99.90;;;;;;5075236;28;20429;-76
2022/05/21 02:57:17;;;;;;;;;;;16.30;99.90;;;;;;5075312;28;19908;-76
2022/05/21 02:59:44;;;;;;;;;;;16.50;99.90;;;;;;5078442;28;19970;-74
2022/05/21 03:02:10;;;;;;;;;;;16.70;99.90;;;;;;5095449;28;19909;-74
2022/05/21 03:04:37;;;;;;;;;;;16.70;99.90;;;;;;5095439;28;19908;-75
2022/05/21 03:07:04;;;;;;;;;;;16.80;99.90;;;;;;5095347;28;19915;-74
2022/05/21 03:12:15;;;;;;;;;;;16.70;99.90;;;;;;5095122;28;19927;-73
2022/05/21 03:14:42;;;;;;;;;;;16.60;99.90;;;;;;5095287;28;20278;-74
2022/05/21 03:17:09;;;;;;;;;;;16.70;99.90;;;;;;5095378;28;19908;-74
2022/05/21 03:19:35;;;;;;;;;;;16.60;99.90;;;;;;5094828;28;19908;-73
2022/05/21 03:22:02;;;;;;;;;;;16.60;99.90;;;;;;5094810;28;19934;-74
2022/05/21 03:24:29;;;;;;;;;;;16.60;99.90;;;;;;5094535;28;20271;-75
2022/05/21 03:26:55;;;;;;;;;;;16.70;99.90;;;;;;5094508;28;20363;-74
2022/05/21 03:29:22;;;;;;;;;;;16.60;99.90;;;;;;5094786;28;20319;-74
2022/05/21 03:31:49;;;;;;;;;;;16.30;99.90;;;;;;5094596;28;19919;-74
2022/05/21 03:34:15;;;;;;;;;;;16.10;99.90;;;;;;5094897;28;19954;-75
2022/05/21 03:36:42;;;;;;;;;;;15.90;99.90;;;;;;5094803;28;19908;-75
2022/05/21 03:39:09;;;;;;;;;;;15.70;99.90;;;;;;5094655;28;19990;-74
2022/05/21 03:41:38;;;;;;;;;;;15.60;99.90;;;;;;5094047;28;19916;-74
2022/05/21 03:44:05;;;;;;;;;;;15.60;99.90;;;;;;5094534;28;20267;-75
2022/05/21 03:46:32;;;;;;;;;;;15.60;99.90;;;;;;5094677;28;19908;-75
2022/05/21 03:48:59;;;;;;;;;;;15.60;99.90;;;;;;5094476;28;19946;-74
2022/05/21 03:51:26;;;;;;;;;;;15.60;99.90;;;;;;5094184;28;20298;-74
2022/05/21 03:53:52;;;;;;;;;;;15.60;99.90;;;;;;5094185;28;19961;-74
2022/05/21 03:56:19;;;;;;;;;;;15.40;99.90;;;;;;5094498;28;19961;-74
2022/05/21 03:58:45;;;;;;;;;;;15.20;99.90;;;;;;5094473;28;19915;-73
2022/05/21 04:01:13;;;;;;;;;;;15.20;99.90;;;;;;5093871;28;20314;-74
2022/05/21 04:03:40;;;;;;;;;;;15.10;99.90;;;;;;5093299;28;19908;-74
2022/05/21 04:06:07;;;;;;;;;;;15.20;99.90;;;;;;5106676;28;19933;-74
2022/05/21 04:08:33;;;;;;;;;;;15.10;99.90;;;;;;5114962;28;20006;-74
2022/05/21 04:11:01;;;;;;;;;;;15.20;99.90;;;;;;5115054;28;19920;-74
2022/05/21 04:13:28;;;;;;;;;;;15.20;99.90;;;;;;5114978;27;19995;-74
2022/05/21 04:15:55;;;;;;;;;;;15.30;99.90;;;;;;5114921;28;19915;-74
2022/05/21 04:18:22;;;;;;;;;;;15.20;99.90;;;;;;5115025;28;20373;-74
2022/05/21 04:20:49;;;;;;;;;;;15.20;99.90;;;;;;5114932;28;19907;-74
2022/05/21 04:23:16;;;;;;;;;;;15.20;99.90;;;;;;5114802;28;20006;-74
2022/05/21 04:25:43;;;;;;;;;;;15.20;99.90;;;;;;5088145;28;19916;-74
2022/05/21 04:28:09;;;;;;;;;;;15.20;99.90;;;;;;5073435;28;19915;-76
2022/05/21 04:30:36;;;;;;;;;;;15.20;99.90;;;;;;5073288;28;20015;-75
2022/05/21 04:33:03;;;;;;;;;;;15.20;99.90;;;;;;5073249;28;19935;-75
2022/05/21 04:36:17;;;;;;;;;;;15.20;99.90;;;;;;5073223;28;20097;-75
2022/05/21 04:38:17;;;;;;;;;;;15.20;99.90;;;;;;5073206;28;19931;-73
2022/05/21 04:40:44;;;;;;;;;;;15.30;99.90;;;;;;5073091;28;19947;-74
2022/05/21 04:43:11;;;;;;;;;;;15.40;99.90;;;;;;5072913;28;19915;-74
2022/05/21 04:45:37;;;;;;;;;;;15.40;99.90;;;;;;5072802;28;19909;-74
2022/05/21 04:48:05;;;;;;;;;;;15.40;99.90;;;;;;5073114;28;20023;-74
2022/05/21 04:50:34;;;;;;;;;;;15.30;99.90;;;;;;5072885;28;19927;-74
2022/05/21 04:53:00;;;;;;;;;;;15.40;99.90;;;;;;5072694;28;19909;-75
2022/05/21 04:55:27;;;;;;;;;;;15.40;99.90;;;;;;5072990;28;19908;-73
2022/05/21 04:57:53;;;;;;;;;;;15.40;99.90;;;;;;5072743;28;19919;-74
2022/05/21 05:00:20;;;;;;;;;;;15.50;99.90;;;;;;5072903;28;19978;-74
2022/05/21 05:02:47;;;;;;;;;;;15.50;99.90;;;;;;5072819;28;19915;-73
2022/05/21 05:05:14;;;;;;;;;;;15.50;99.90;;;;;;5072820;28;19923;-74
2022/05/21 05:07:41;;;;;;;;;;;15.50;99.90;;;;;;5072530;28;19915;-75
2022/05/21 05:10:08;;;;;;;;;;;15.40;99.90;;;;;;5072877;28;19923;-74
2022/05/21 05:12:35;;;;;;;;;;;15.40;99.90;;;;;;5072649;28;20317;-75
2022/05/21 05:15:02;;;;;;;;;;;15.40;99.90;;;;;;5072493;28;20337;-75
2022/05/21 05:17:28;;;;;;;;;;;15.40;99.90;;;;;;5072826;28;19909;-75
2022/05/21 05:19:55;;;;;;;;;;;15.30;99.90;;;;;;5072845;28;20405;-74
2022/05/21 05:22:22;;;;;;;;;;;15.30;99.90;;;;;;5072559;28;19958;-75
2022/05/21 05:24:49;;;;;;;;;;;15.30;99.90;;;;;;5072556;28;19916;-75
2022/05/21 05:27:16;;;;;;;;;;;15.30;99.90;;;;;;5072618;28;19948;-74
2022/05/21 05:29:42;;;;;;;;;;;15.30;99.90;;;;;;5072220;28;19962;-75
2022/05/21 05:32:10;;;;;;;;;;;15.40;99.90;;;;;;5072522;28;19934;-75
2022/05/21 05:34:37;;;;;;;;;;;15.40;99.90;;;;;;5072607;28;20320;-75
2022/05/21 05:37:04;;;;;;;;;;;15.50;99.90;;;;;;5072396;28;20297;-76
2022/05/21 05:39:33;;;;;;;;;;;15.50;99.90;;;;;;5072055;28;19908;-76
2022/05/21 05:42:04;;;;;;;;;;;15.50;99.90;;;;;;5072493;28;20367;-75
2022/05/21 05:44:31;;;;;;;;;;;15.50;99.90;;;;;;5072576;28;19953;-75
2022/05/21 05:46:58;;;;;;;;;;;15.50;99.90;;;;;;5072656;28;19912;-74
2022/05/21 05:49:25;;;;;;;;;;;15.40;99.90;;;;;;5072108;28;19968;-75
2022/05/21 05:51:51;;;;;;;;;;;15.30;99.90;;;;;;5072039;28;19925;-75
2022/05/21 05:54:18;;;;;;;;;;;15.20;99.90;;;;;;5072060;28;19915;-75
2022/05/21 05:56:45;;;;;;;;;;;15.20;99.90;;;;;;5071668;28;20328;-75
2022/05/21 06:04:41;;;;;;;;;;;15.10;99.90;;;;;;5095007;28;20408;-76
2022/05/21 06:07:17;;;;;;;;;;;15.10;99.90;;;;;;5113356;28;19908;-75
2022/05/21 06:09:44;;;;;;;;;;;15.10;99.90;;;;;;5113116;28;19927;-75
2022/05/21 06:12:11;;;;;;;;;;;15.10;99.90;;;;;;5113450;28;19916;-75
2022/05/21 06:14:38;;;;;;;;;;;15.00;99.90;;;;;;5113472;28;20411;-75
2022/05/21 06:17:05;;;;;;;;;;;15.00;99.90;;;;;;5113369;28;19990;-75
2022/05/21 06:19:31;;;;;;;;;;;15.00;99.90;;;;;;5113240;28;19908;-74
2022/05/21 06:21:58;;;;;;;;;;;15.10;99.90;;;;;;5113253;28;19907;-76
2022/05/21 06:24:25;;;;;;;;;;;15.10;99.90;;;;;;5113238;28;20002;-76
2022/05/21 06:26:52;;;;;;;;;;;15.10;99.90;;;;;;5116847;28;19917;-75
2022/05/21 06:29:18;;;;;;;;;;;15.00;99.90;;;;;;5117054;28;19908;-75
2022/05/21 06:31:45;;;;;;;;;;;15.10;99.90;;;;;;5116751;28;19908;-75
2022/05/21 06:34:12;;;;;;;;;;;15.20;99.90;;;;;;5117078;28;19915;-75
2022/05/21 06:36:38;;;;;;;;;;;15.10;99.90;;;;;;5090200;28;20367;-75
2022/05/21 06:39:05;;;;;;;;;;;15.00;99.90;;;;;;5075314;28;19913;-75
2022/05/21 06:41:32;;;;;;;;;;;15.10;99.90;;;;;;5075481;28;19920;-75
2022/05/21 06:43:58;;;;;;;;;;;15.10;99.90;;;;;;5075581;28;20283;-75
2022/05/21 06:46:25;;;;;;;;;;;15.10;99.90;;;;;;5075417;28;20378;-75
2022/05/21 06:48:52;;;;;;;;;;;15.10;99.90;;;;;;5075427;28;19909;-75
2022/05/21 06:51:19;;;;;;;;;;;15.10;99.90;;;;;;5075237;28;20003;-75
2022/05/21 06:53:47;;;;;;;;;;;15.10;99.90;;;;;;5075077;28;20278;-75
2022/05/21 06:56:15;;;;;;;;;;;15.10;99.90;;;;;;5109829;28;19912;-74
2022/05/21 06:58:41;;;;;;;;;;;15.20;99.90;;;;;;5116587;28;19908;-74
2022/05/21 07:01:09;;;;;;;;;;;15.10;99.90;;;;;;5116602;28;19907;-74
2022/05/21 07:03:36;;;;;;;;;;;15.00;99.90;;;;;;5116253;28;20360;-74
2022/05/21 07:08:48;;;;;;;;;;;14.90;99.90;;;;;;5116288;28;20018;-74
2022/05/21 07:11:14;;;;;;;;;;;14.90;99.90;;;;;;5116153;28;19959;-75
2022/05/21 07:13:41;;;;;;;;;;;14.90;99.90;;;;;;5116262;28;20368;-75
2022/05/21 07:16:08;;;;;;;;;;;14.80;99.90;;;;;;5116335;28;19994;-75
2022/05/21 07:18:35;;;;;;;;;;;14.80;99.90;;;;;;5116179;28;19907;-74
2022/05/21 07:21:02;;;;;;;;;;;14.80;99.90;;;;;;5116129;28;19908;-74
2022/05/21 07:23:29;;;;;;;;;;;14.80;99.90;;;;;;5115907;28;19914;-74
2022/05/21 07:25:55;;;;;;;;;;;14.80;99.90;;;;;;5116041;28;20002;-75
2022/05/21 07:28:22;;;;;;;;;;;14.80;99.90;;;;;;5116089;28;20281;-75
2022/05/21 07:30:49;;;;;;;;;;;14.80;99.90;;;;;;5115780;28;19916;-73
2022/05/21 07:33:16;;;;;;;;;;;14.80;99.90;;;;;;5115915;28;19914;-75
2022/05/21 07:35:44;;;;;;;;;;;14.80;99.90;;;;;;5115577;28;19969;-75
2022/05/21 07:38:12;;;;;;;;;;;14.80;99.90;;;;;;5115568;28;19915;-74
2022/05/21 07:40:39;;;;;;;;;;;14.70;99.90;;;;;;5115830;28;20041;-75
2022/05/21 07:43:09;;;;;;;;;;;14.70;99.90;;;;;;5115833;28;19911;-75
2022/05/21 07:45:38;;;;;;;;;;;14.70;99.90;;;;;;5115500;28;19908;-73
2022/05/21 07:48:06;;;;;;;;;;;14.70;99.90;;;;;;5114011;28;19915;-74
2022/05/21 07:50:33;;;;;;;;;;;14.80;99.90;;;;;;5113079;28;20370;-74
2022/05/21 07:52:59;;;;;;;;;;;14.80;99.90;;;;;;5111776;28;19943;-74
2022/05/21 07:55:26;;;;;;;;;;;14.80;99.90;;;;;;5113148;28;19984;-74
2022/05/21 07:57:53;;;;;;;;;;;14.80;99.90;;;;;;5112983;28;20212;-74
2022/05/21 08:00:20;;;;;;;;;;;14.80;99.90;;;;;;5113037;28;19918;-74
2022/05/21 08:02:47;;;;;;;;;;;14.80;99.90;;;;;;5112938;28;20353;-74
2022/05/21 08:05:13;;;;;;;;;;;14.80;99.90;;;;;;5111686;28;19958;-74
2022/05/21 08:07:40;;;;;;;;;;;14.80;99.90;;;;;;5111073;28;19911;-74
2022/05/21 08:10:07;;;;;;;;;;;14.80;99.90;;;;;;5111164;28;19919;-74
2022/05/21 08:12:34;;;;;;;;;;;14.80;99.90;;;;;;5111402;28;19951;-75
2022/05/21 08:15:01;;;;;;;;;;;14.70;99.90;;;;;;5111711;28;20434;-74
2022/05/21 08:17:28;;;;;;;;;;;14.70;99.90;;;;;;5112245;28;20006;-74
2022/05/21 08:19:54;;;;;;;;;;;14.70;99.90;;;;;;5112342;28;20411;-74
2022/05/21 08:27:50;;;;;;;;;;;14.70;99.90;;;;;;5112590;28;19919;-75
2022/05/21 08:30:17;;;;;;;;;;;14.80;99.90;;;;;;5112561;28;19962;-74
2022/05/21 08:32:43;;;;;;;;;;;14.70;99.90;;;;;;5112702;28;19912;-74
2022/05/21 08:35:10;;;;;;;;;;;14.70;99.90;;;;;;5112622;28;19961;-74
2022/05/21 08:37:37;;;;;;;;;;;14.70;99.90;;;;;;5112084;28;19908;-74
2022/05/21 08:40:04;;;;;;;;;;;14.70;99.90;;;;;;5111934;28;19919;-75
2022/05/21 08:42:38;;;;;;;;;;;14.70;99.90;;;;;;5112402;28;20377;-75
2022/05/21 08:45:14;;;;;;;;;;;14.70;99.90;;;;;;5112382;28;19916;-75
2022/05/21 08:47:41;;;;;;;;;;;14.80;99.90;;;;;;5111746;28;19912;-74
2022/05/21 08:50:10;;;;;;;;;;;14.70;99.90;;;;;;5112009;28;20018;-75
2022/05/21 08:52:55;;;;;;;;;;;14.70;99.90;;;;;;5112319;28;19908;-75
2022/05/21 08:55:26;;;;;;;;;;;14.80;99.90;;;;;;5111953;28;19908;-74
2022/05/21 08:57:56;;;;;;;;;;;14.80;99.90;;;;;;5112101;28;19965;-74
2022/05/21 09:00:35;;;;;;;;;;;14.80;99.90;;;;;;5112131;28;19959;-75
2022/05/21 09:03:05;;;;;;;;;;;14.70;99.90;;;;;;5112158;28;19970;-75
2022/05/21 09:05:32;;;;;;;;;;;14.70;99.90;;;;;;5113480;28;20005;-74
2022/05/21 09:08:03;;;;;;;;;;;14.60;99.90;;;;;;5113985;28;20316;-75
2022/05/21 09:10:45;;;;;;;;;;;14.50;99.90;;;;;;5114109;28;19962;-74
2022/05/21 09:13:16;;;;;;;;;;;14.60;99.90;;;;;;5114005;28;19911;-75
2022/05/21 09:18:30;;;;;;;;;;;14.50;99.90;;;;;;5114405;28;19931;-75
2022/05/21 09:21:02;;;;;;;;;;;14.60;99.90;;;;;;5113978;28;19908;-74
2022/05/21 09:23:47;;;;;;;;;;;14.60;99.90;;;;;;5113765;28;19907;-74
2022/05/21 09:26:13;;;;;;;;;;;14.70;99.90;;;;;;5112554;28;20340;-75
2022/05/21 09:28:41;;;;;;;;;;;14.70;99.90;;;;;;5113855;28;19908;-75
2022/05/21 09:31:09;;;;;;;;;;;14.70;99.90;;;;;;5113758;28;19930;-75
2022/05/21 09:33:37;;;;;;;;;;;14.70;99.90;;;;;;5099602;28;19908;-74
2022/05/21 09:36:05;;;;;;;;;;;14.60;99.90;;;;;;5084112;28;19909;-75
2022/05/21 09:38:51;;;;;;;;;;;14.60;99.90;;;;;;5072776;28;19912;-75
2022/05/21 09:41:21;;;;;;;;;;;14.60;99.90;;;;;;5072998;28;19909;-75
2022/05/21 09:46:44;;;;;;;;;;;14.60;99.90;;;;;;5073300;28;20373;-75
2022/05/21 09:49:18;;;;;;;;;;;14.70;99.90;;;;;;5072830;28;19953;-75
2022/05/21 09:51:55;;;;;;;;;;;14.70;99.90;;;;;;5072329;28;20017;-74
2022/05/21 09:54:24;;;;;;;;;;;14.70;99.90;;;;;;5073154;28;20360;-75
2022/05/21 09:56:52;;;;;;;;;;;14.60;99.90;;;;;;5071246;28;19948;-75
2022/05/21 09:59:21;;;;;;;;;;;14.70;99.90;;;;;;5072728;28;20347;-74
2022/05/21 10:01:49;;;;;;;;;;;14.60;99.90;;;;;;5076228;28;19948;-74
2022/05/21 10:04:22;;;;;;;;;;;14.70;99.90;;;;;;5076831;28;20382;-74
2022/05/21 10:06:54;;;;;;;;;;;14.70;99.90;;;;;;5076656;28;20371;-75
2022/05/21 10:12:35;;;;;;;;;;;14.60;99.90;;;;;;5076694;28;19915;-74
2022/05/21 10:15:06;;;;;;;;;;;14.70;99.90;;;;;;5076596;28;19987;-73
2022/05/21 10:17:41;;;;;;;;;;;14.60;99.90;;;;;;5076520;28;19964;-73
2022/05/21 10:20:16;;;;;;;;;;;14.50;99.90;;;;;;5076647;28;20385;-74
2022/05/21 10:23:02;;;;;;;;;;;14.50;99.90;;;;;;5076211;28;20011;-75
2022/05/21 10:25:35;;;;;;;;;;;14.50;99.90;;;;;;5076746;28;19908;-75
2022/05/21 10:28:15;;;;;;;;;;;14.50;99.90;;;;;;5075971;28;19909;-74
2022/05/21 10:30:45;;;;;;;;;;;14.50;99.90;;;;;;5076507;28;19923;-74
2022/05/21 10:33:12;;;;;;;;;;;14.40;99.90;;;;;;5096561;28;19916;-74
2022/05/21 10:35:38;;;;;;;;;;;14.40;99.90;;;;;;5096374;28;20278;-74
2022/05/21 10:38:11;;;;;;;;;;;14.40;99.90;;;;;;5096026;28;19965;-74
2022/05/21 10:40:44;;;;;;;;;;;14.30;99.90;;;;;;5096179;28;19995;-74
2022/05/21 10:43:24;;;;;;;;;;;14.40;99.90;;;;;;5095028;28;20002;-74
2022/05/21 10:45:50;;;;;;;;;;;14.50;99.90;;;;;;5094356;28;19915;-74
2022/05/21 10:48:17;;;;;;;;;;;14.50;99.90;;;;;;5094610;28;19915;-74
2022/05/21 10:50:56;;;;;;;;;;;14.50;99.90;;;;;;5094045;28;20367;-74
2022/05/21 10:53:29;;;;;;;;;;;14.50;99.90;;;;;;5094325;28;19990;-74
2022/05/21 10:55:58;;;;;;;;;;;14.60;99.90;;;;;;5094287;28;19915;-74
2022/05/21 10:58:28;;;;;;;;;;;14.50;99.90;;;;;;5094168;28;19989;-74
2022/05/21 11:01:09;;;;;;;;;;;14.60;99.90;;;;;;5095942;28;20025;-74
2022/05/21 11:03:54;;;;;;;;;;;14.60;99.90;;;;;;5095985;28;20023;-74
2022/05/21 11:06:41;;;;;;;;;;;14.60;99.90;;;;;;5095635;28;19908;-74
2022/05/21 11:09:29;;;;;;;;;;;14.60;99.90;;;;;;5070139;28;20270;-75
2022/05/21 11:11:57;;;;;;;;;;;14.60;99.90;;;;;;5075280;28;19921;-74
2022/05/21 11:14:24;;;;;;;;;;;14.60;99.90;;;;;;5075630;28;19908;-75
2022/05/21 11:16:58;;;;;;;;;;;14.50;99.90;;;;;;5075338;28;20011;-75
2022/05/21 11:19:37;;;;;;;;;;;14.50;99.90;;;;;;5075538;28;19944;-74
2022/05/21 11:22:08;;;;;;;;;;;14.40;99.90;;;;;;5075385;28;19913;-75
2022/05/21 11:24:42;;;;;;;;;;;14.40;99.90;;;;;;5074858;28;20419;-74
2022/05/21 11:27:36;;;;;;;;;;;14.40;99.90;;;;;;5107649;28;19909;-75
2022/05/21 11:30:04;;;;;;;;;;;14.40;99.90;;;;;;5075299;28;19924;-75
2022/05/21 11:38:31;;;;;;;;;;;14.40;99.90;;;;;;5074989;28;20283;-74
2022/05/21 11:43:57;;;;;;;;;;;14.30;99.90;;;;;;5075288;28;19916;-74
2022/05/21 11:46:37;;;;;;;;;;;14.30;99.90;;;;;;5074950;28;19919;-75
2022/05/21 11:49:22;;;;;;;;;;;14.30;99.90;;;;;;5075139;28;19912;-75
2022/05/21 11:51:48;;;;;;;;;;;14.30;99.90;;;;;;5074482;28;19966;-75
2022/05/21 11:54:33;;;;;;;;;;;14.30;99.90;;;;;;5074454;28;19970;-74
2022/05/21 11:57:04;;;;;;;;;;;14.30;99.90;;;;;;5074772;28;19916;-75
2022/05/21 11:59:49;;;;;;;;;;;14.30;99.90;;;;;;5074221;28;19908;-75
2022/05/21 12:02:21;;;;;;;;;;;14.30;99.90;;;;;;5074372;28;20311;-75
2022/05/21 12:04:49;;;;;;;;;;;14.30;99.90;;;;;;5074676;28;20355;-74
2022/05/21 12:07:17;;;;;;;;;;;14.30;99.90;;;;;;5074530;28;19944;-75
2022/05/21 12:10:10;;;;;;;;;;;14.30;99.90;;;;;;5073911;28;19913;-74
2022/05/21 12:12:58;;;;;;;;;;;14.30;99.90;;;;;;5073020;28;19912;-75
2022/05/21 12:15:55;;;;;;;;;;;14.30;99.90;;;;;;5074416;28;20276;-75
2022/05/21 12:18:33;;;;;;;;;;;14.30;99.90;;;;;;5069711;28;19916;-74
2022/05/21 12:21:01;;;;;;;;;;;14.30;99.90;;;;;;5074198;28;19908;-74
2022/05/21 12:23:31;;;;;;;;;;;14.30;99.90;;;;;;5073513;28;19908;-75
2022/05/21 12:26:02;;;;;;;;;;;14.30;99.90;;;;;;5105821;28;19915;-75
2022/05/21 12:28:41;;;;;;;;;;;14.20;99.90;;;;;;5074370;28;20421;-75
2022/05/21 12:31:11;;;;;;;;;;;14.20;99.90;;;;;;5074196;28;19916;-75
2022/05/21 12:33:41;;;;;;;;;;;14.30;99.90;;;;;;5073807;28;19916;-74
2022/05/21 12:36:33;;;;;;;;;;;14.20;99.90;;;;;;5073931;28;19915;-75
2022/05/21 12:39:03;;;;;;;;;;;14.20;99.90;;;;;;5072372;28;19962;-74
2022/05/21 12:41:36;;;;;;;;;;;14.30;99.90;;;;;;5073878;28;20415;-74
2022/05/21 12:44:03;;;;;;;;;;;14.30;99.90;;;;;;5073978;28;20130;-74
2022/05/21 12:46:32;;;;;;;;;;;14.30;99.90;;;;;;5073633;28;19934;-74
2022/05/21 12:49:03;;;;;;;;;;;14.20;99.90;;;;;;5073949;28;19916;-75
2022/05/21 12:51:37;;;;;;;;;;;14.20;99.90;;;;;;5073411;28;20319;-74
2022/05/21 12:54:05;;;;;;;;;;;14.30;99.90;;;;;;5073799;28;19948;-74
2022/05/21 12:56:33;;;;;;;;;;;14.30;99.90;;;;;;5073811;28;19915;-75
2022/05/21 12:59:03;;;;;;;;;;;14.20;99.90;;;;;;5073810;28;19971;-75
2022/05/21 13:01:31;;;;;;;;;;;14.20;99.90;;;;;;5073647;28;19912;-75
2022/05/21 13:03:59;;;;;;;;;;;14.10;99.90;;;;;;5073897;28;19912;-75
2022/05/21 13:06:28;;;;;;;;;;;14.10;99.90;;;;;;5073922;28;20005;-75
2022/05/21 13:08:56;;;;;;;;;;;14.10;99.90;;;;;;5073893;28;19909;-74
2022/05/21 13:11:36;;;;;;;;;;;14.10;99.90;;;;;;5073966;28;20104;-74
2022/05/21 13:14:10;;;;;;;;;;;14.10;99.90;;;;;;5075913;28;19955;-75
2022/05/21 13:16:49;;;;;;;;;;;14.00;99.90;;;;;;5074118;28;19962;-75
2022/05/21 13:19:28;;;;;;;;;;;14.00;99.90;;;;;;5073715;28;19919;-74
2022/05/21 13:22:07;;;;;;;;;;;14.00;99.90;;;;;;5106359;28;19908;-75
2022/05/21 13:24:54;;;;;;;;;;;14.00;99.90;;;;;;5073657;28;19934;-75
2022/05/21 13:27:22;;;;;;;;;;;14.00;99.90;;;;;;5072394;28;19933;-75
2022/05/21 13:29:49;;;;;;;;;;;14.00;99.90;;;;;;5072689;28;20348;-75
2022/05/21 13:32:25;;;;;;;;;;;14.10;99.90;;;;;;5072495;28;19913;-75
2022/05/21 13:34:56;;;;;;;;;;;14.00;99.90;;;;;;5073305;28;19913;-74
2022/05/21 13:37:31;;;;;;;;;;;14.00;99.90;;;;;;5073009;28;19916;-74
2022/05/21 13:40:12;;;;;;;;;;;14.00;99.90;;;;;;5071766;28;20431;-74
2022/05/21 13:42:40;;;;;;;;;;;14.00;99.90;;;;;;5071846;28;19916;-74
2022/05/21 13:45:16;;;;;;;;;;;14.00;99.90;;;;;;5071533;28;19909;-74
2022/05/21 13:47:49;;;;;;;;;;;14.00;99.90;;;;;;5071642;28;19915;-74
2022/05/21 13:50:18;;;;;;;;;;;14.10;99.90;;;;;;5071310;28;19927;-74
2022/05/21 13:52:45;;;;;;;;;;;14.00;99.90;;;;;;5071950;28;19940;-74
2022/05/21 13:55:12;;;;;;;;;;;13.90;99.90;;;;;;5073203;28;20267;-75
2022/05/21 13:57:40;;;;;;;;;;;14.00;99.90;;;;;;5072809;28;19909;-75
2022/05/21 14:00:14;;;;;;;;;;;14.00;99.90;;;;;;5073114;28;19909;-74
2022/05/21 14:02:43;;;;;;;;;;;14.00;99.90;;;;;;5073128;28;19909;-74
2022/05/21 14:05:23;;;;;;;;;;;13.90;99.90;;;;;;5072927;28;19909;-74
2022/05/21 14:07:54;;;;;;;;;;;13.90;99.90;;;;;;5072762;28;19912;-75
2022/05/21 14:10:50;;;;;;;;;;;13.90;99.90;;;;;;5072489;28;20011;-75
2022/05/21 14:13:28;;;;;;;;;;;13.90;99.90;;;;;;5071890;28;19908;-74
2022/05/21 14:15:56;;;;;;;;;;;13.90;99.90;;;;;;5072986;28;20010;-75
2022/05/21 14:18:43;;;;;;;;;;;13.80;99.90;;;;;;5072336;28;19944;-75
2022/05/21 14:21:22;;;;;;;;;;;13.80;99.90;;;;;;5072833;28;19931;-75
2022/05/21 14:23:49;;;;;;;;;;;13.80;99.90;;;;;;5072724;28;20422;-75
2022/05/21 14:26:27;;;;;;;;;;;13.80;99.90;;;;;;5072808;28;19916;-75
2022/05/21 14:28:55;;;;;;;;;;;13.80;99.90;;;;;;5072733;28;19912;-74
2022/05/21 14:31:21;;;;;;;;;;;13.80;99.90;;;;;;5072968;28;19917;-74
2022/05/21 14:33:55;;;;;;;;;;;13.80;99.90;;;;;;5072281;28;19947;-75
2022/05/21 14:36:35;;;;;;;;;;;13.80;99.90;;;;;;5072680;28;19909;-75
2022/05/21 14:39:01;;;;;;;;;;;13.80;99.90;;;;;;5072849;28;19930;-75
2022/05/21 14:41:33;;;;;;;;;;;13.80;99.90;;;;;;5072704;28;19947;-75
2022/05/21 14:44:00;;;;;;;;;;;13.80;99.90;;;;;;5072742;28;19963;-75
2022/05/21 14:49:12;;;;;;;;;;;13.80;99.90;;;;;;5076423;28;19938;-75
2022/05/21 14:54:27;;;;;;;;;;;13.80;99.90;;;;;;5076578;28;20011;-75
2022/05/21 14:56:54;;;;;;;;;;;13.80;99.90;;;;;;5076222;28;19999;-75
2022/05/21 14:59:21;;;;;;;;;;;13.80;99.90;;;;;;5076251;28;19915;-75
2022/05/21 15:01:48;;;;;;;;;;;13.70;99.90;;;;;;5075872;28;20294;-75
2022/05/21 15:04:14;;;;;;;;;;;13.70;99.90;;;;;;5075922;28;19958;-75
2022/05/21 15:06:41;;;;;;;;;;;13.70;99.90;;;;;;5075973;28;19909;-75
2022/05/21 15:09:09;;;;;;;;;;;13.70;99.90;;;;;;5076045;28;19908;-75
2022/05/21 15:11:35;;;;;;;;;;;13.70;99.90;;;;;;5075643;28;19924;-75
2022/05/21 15:14:02;;;;;;;;;;;13.70;99.90;;;;;;5075809;28;20275;-75
2022/05/21 15:16:29;;;;;;;;;;;13.60;99.90;;;;;;5075902;28;20275;-75
2022/05/21 15:18:55;;;;;;;;;;;13.60;99.90;;;;;;5075859;28;19999;-75
2022/05/21 15:21:24;;;;;;;;;;;13.60;99.90;;;;;;5075594;28;20351;-75